Main page
METAR-TAF:

METAR-TAF

Airports :

Mason Jewett Field

Mason, Michigan, United States

latitude: 42-33-57N, longitude: 084-25-24W, elevation: 280 m

Current weather observation

The report was made 34 minutes ago, at 03:15 UTC
Wind 8 kt from the South
Temperature 25°C
Humidity 44%
Pressure 1014 hPa
Visibility: 16.1 km
Clear sky

METAR: KTEW 170315Z AUTO 17008KT 10SM CLR 25/12 A2994 RMK AO2 T02470116

Time: 23:49 (03:49 UTC)


TAF: missing

Weather observations and forecasts of more than 4000 airports (METAR and TAF reports).

The available stations are represented by yellow and red dots on the map.

Hover mouse over dot to see the name of the station.

Then click to see weather observations and forecasts.

To change the map : click on the green buttons with a black cross to zoom in, on the green button with a dash to zoom out, or on the green arrows for adjacent maps.


METAR-TAF: